Time;durP1;ratioP1;P1;durP2;ratioP2;P2;SDS_P1;SDS_P2;PMS_P1;PMS_P2;Temp;Humidity;BMP_temperature;BMP_pressure;BME280_temperature;BME280_humidity;BME280_pressure;Samples;Min_cycle;Max_cycle;Signal;HPM_P1;HPM_P2
2020/12/25 00:00:20;;;;;;;21.03;16.33;;;7.10;77.40;;;;;;6187251;23;20027;-82
2020/12/25 00:02:46;;;;;;;26.13;17.37;;;7.20;77.30;;;;;;6187663;23;20062;-82
2020/12/25 00:05:12;;;;;;;23.60;16.67;;;7.10;76.90;;;;;;6213759;23;20004;-82
2020/12/25 00:07:38;;;;;;;19.00;15.80;;;7.00;77.30;;;;;;6214234;23;20032;-82
2020/12/25 00:10:04;;;;;;;18.13;14.20;;;7.00;77.60;;;;;;6213097;23;20039;-82
2020/12/25 00:12:29;;;;;;;17.77;13.90;;;7.00;77.50;;;;;;6187898;23;20004;-82
2020/12/25 00:14:55;;;;;;;19.97;16.70;;;7.10;77.60;;;;;;6187755;23;20009;-82
2020/12/25 00:17:21;;;;;;;18.27;14.23;;;7.10;77.50;;;;;;6186216;23;20013;-82
2020/12/25 00:19:46;;;;;;;15.87;12.83;;;7.10;77.40;;;;;;6187400;23;20005;-82
2020/12/25 00:22:12;;;;;;;13.90;11.83;;;7.10;77.40;;;;;;6187967;23;20082;-83
2020/12/25 00:24:37;;;;;;;15.80;13.03;;;7.10;77.30;;;;;;6188374;23;20004;-82
2020/12/25 00:27:03;;;;;;;18.03;13.83;;;7.20;77.40;;;;;;6212218;23;20011;-82
2020/12/25 00:29:29;;;;;;;18.77;14.20;;;7.20;77.20;;;;;;6186113;23;20013;-82
2020/12/25 00:31:54;;;;;;;22.27;16.37;;;7.20;77.10;;;;;;6213866;23;20431;-82
2020/12/25 00:34:20;;;;;;;21.23;15.80;;;7.20;77.00;;;;;;6186646;23;20507;-82
2020/12/25 00:36:46;;;;;;;23.27;15.40;;;7.20;77.10;;;;;;6187406;23;20008;-82
2020/12/25 00:39:14;;;;;;;19.67;15.27;;;7.10;77.30;;;;;;6212976;23;20039;-82
2020/12/25 00:41:40;;;;;;;21.43;16.33;;;7.10;77.30;;;;;;6186686;23;20673;-82
2020/12/25 00:44:06;;;;;;;19.43;15.53;;;7.20;77.30;;;;;;6186246;23;20016;-82
2020/12/25 00:46:31;;;;;;;21.23;16.37;;;7.20;77.20;;;;;;6187088;23;20019;-82
2020/12/25 00:48:57;;;;;;;18.23;14.57;;;7.10;77.00;;;;;;6213216;23;20051;-81
2020/12/25 00:51:23;;;;;;;16.13;11.73;;;7.00;77.00;;;;;;6186363;23;20008;-81
2020/12/25 00:53:49;;;;;;;21.57;15.57;;;7.00;78.20;;;;;;6187040;23;20435;-81
2020/12/25 00:56:16;;;;;;;20.53;15.10;;;7.20;77.60;;;;;;6187227;23;20004;-82
2020/12/25 00:58:42;;;;;;;18.03;13.43;;;7.10;77.30;;;;;;6214151;23;20076;-81
2020/12/25 01:01:09;;;;;;;9.67;8.43;;;7.00;77.50;;;;;;6212479;23;20012;-81
2020/12/25 01:03:36;;;;;;;12.20;9.17;;;7.00;77.90;;;;;;6186593;23;20015;-81
2020/12/25 01:06:07;;;;;;;10.73;8.67;;;7.10;78.10;;;;;;6186960;23;20008;-81
2020/12/25 01:08:33;;;;;;;10.10;8.47;;;7.10;77.80;;;;;;6186845;23;20062;-81
2020/12/25 01:10:58;;;;;;;10.63;9.40;;;7.20;77.90;;;;;;6183743;23;20714;-82
2020/12/25 01:13:24;;;;;;;11.37;9.47;;;7.20;77.70;;;;;;6186596;23;20377;-82
2020/12/25 01:15:50;;;;;;;13.40;11.00;;;7.20;77.60;;;;;;6186737;23;20450;-81
2020/12/25 01:18:15;;;;;;;14.27;11.23;;;7.10;77.70;;;;;;6213193;23;20574;-82
2020/12/25 01:20:41;;;;;;;14.43;12.27;;;7.20;77.80;;;;;;6186875;23;20095;-81
2020/12/25 01:23:06;;;;;;;29.47;17.57;;;7.20;77.70;;;;;;6213475;23;20008;-81
2020/12/25 01:25:32;;;;;;;24.47;16.57;;;7.20;77.60;;;;;;6213140;23;20051;-81
2020/12/25 01:27:58;;;;;;;30.57;16.67;;;7.10;77.60;;;;;;6186302;23;20024;-81
2020/12/25 01:30:24;;;;;;;20.27;14.20;;;7.10;77.70;;;;;;6211583;23;20023;-82
2020/12/25 01:32:49;;;;;;;18.37;14.17;;;7.20;77.70;;;;;;6186284;23;20032;-82
2020/12/25 01:35:15;;;;;;;19.60;15.77;;;7.10;77.60;;;;;;6186026;23;20004;-82
2020/12/25 01:37:41;;;;;;;16.50;13.27;;;7.10;77.60;;;;;;6186308;23;20010;-82
2020/12/25 01:40:07;;;;;;;17.23;13.43;;;7.10;77.70;;;;;;6186181;23;20367;-82
2020/12/25 01:42:34;;;;;;;16.20;10.83;;;7.10;77.80;;;;;;6186868;23;20012;-82
2020/12/25 01:45:00;;;;;;;14.13;11.73;;;7.10;78.10;;;;;;6186911;23;20008;-82
2020/12/25 01:47:26;;;;;;;17.47;13.47;;;7.20;77.90;;;;;;6213142;23;20005;-82
2020/12/25 01:49:53;;;;;;;16.57;12.77;;;7.20;77.70;;;;;;6185595;23;20009;-82
2020/12/25 01:52:19;;;;;;;11.67;9.47;;;7.20;77.70;;;;;;6212665;23;20102;-82
2020/12/25 01:54:46;;;;;;;14.40;10.47;;;7.20;77.80;;;;;;6185805;23;20031;-83
2020/12/25 01:57:13;;;;;;;12.27;10.23;;;7.20;77.80;;;;;;6213062;23;20001;-83
2020/12/25 01:59:40;;;;;;;14.13;11.47;;;7.30;77.70;;;;;;6184174;23;20008;-83
2020/12/25 02:02:08;;;;;;;16.17;12.47;;;7.30;77.60;;;;;;6188065;23;20017;-83
2020/12/25 02:04:34;;;;;;;16.87;13.73;;;7.30;77.60;;;;;;6187490;23;20012;-83
2020/12/25 02:07:00;;;;;;;19.47;15.40;;;7.30;77.50;;;;;;6188641;23;20083;-83
2020/12/25 02:09:26;;;;;;;20.17;14.43;;;7.30;77.50;;;;;;6187341;23;20117;-83
2020/12/25 02:11:53;;;;;;;16.50;13.40;;;7.30;77.60;;;;;;6188085;23;20317;-83
2020/12/25 02:14:19;;;;;;;17.60;13.63;;;7.30;77.60;;;;;;6187711;23;20023;-83
2020/12/25 02:16:45;;;;;;;15.53;12.90;;;7.30;77.60;;;;;;6188290;23;20001;-83
2020/12/25 02:19:11;;;;;;;14.70;12.40;;;7.30;77.70;;;;;;6188513;23;20527;-82
2020/12/25 02:21:37;;;;;;;19.03;14.13;;;7.30;77.60;;;;;;6188755;23;20305;-82
2020/12/25 02:24:03;;;;;;;14.60;12.67;;;7.20;77.50;;;;;;6187475;23;20012;-82
2020/12/25 02:26:30;;;;;;;15.13;12.10;;;7.20;77.70;;;;;;6188080;23;20004;-82
2020/12/25 02:28:55;;;;;;;16.50;13.50;;;7.30;77.70;;;;;;6186975;23;20064;-82
2020/12/25 02:31:21;;;;;;;18.03;13.00;;;7.30;77.60;;;;;;6188621;23;20403;-82
2020/12/25 02:33:47;;;;;;;14.40;12.20;;;7.30;77.60;;;;;;6213702;23;20015;-82
2020/12/25 02:36:12;;;;;;;14.57;12.20;;;7.20;77.60;;;;;;6188098;23;20012;-82
2020/12/25 02:38:38;;;;;;;15.93;12.00;;;7.20;77.70;;;;;;6213850;23;20024;-82
2020/12/25 02:41:04;;;;;;;18.07;13.97;;;7.20;77.70;;;;;;6186692;23;20036;-82
2020/12/25 02:43:30;;;;;;;17.43;13.10;;;7.20;77.70;;;;;;6214795;23;19996;-82
2020/12/25 02:45:55;;;;;;;18.70;13.23;;;7.20;77.60;;;;;;6188495;23;20276;-82
2020/12/25 02:48:21;;;;;;;15.57;13.20;;;7.20;77.60;;;;;;6188225;23;20000;-82
2020/12/25 02:50:47;;;;;;;16.93;13.10;;;7.20;77.80;;;;;;6214004;23;20060;-82
2020/12/25 02:53:13;;;;;;;16.00;12.47;;;7.20;77.70;;;;;;6214243;23;20004;-82
2020/12/25 02:55:38;;;;;;;15.77;13.23;;;7.20;77.80;;;;;;6186749;23;20054;-82
2020/12/25 02:58:04;;;;;;;15.70;11.83;;;7.30;77.80;;;;;;6187269;23;20005;-82
2020/12/25 03:00:30;;;;;;;14.00;11.57;;;7.20;77.70;;;;;;6187275;23;20415;-82
2020/12/25 03:02:55;;;;;;;15.77;12.43;;;7.30;77.90;;;;;;6187090;23;20785;-81
2020/12/25 03:05:21;;;;;;;13.40;11.40;;;7.30;77.70;;;;;;6214533;23;20055;-82
2020/12/25 03:07:46;;;;;;;15.27;12.30;;;7.30;77.80;;;;;;6213340;23;20019;-82
2020/12/25 03:10:12;;;;;;;13.97;11.97;;;7.30;77.90;;;;;;6187073;23;20008;-82
2020/12/25 03:12:38;;;;;;;15.03;12.43;;;7.30;77.80;;;;;;6188031;23;20008;-82
2020/12/25 03:15:04;;;;;;;16.37;13.50;;;7.30;77.80;;;;;;6214813;23;20071;-82
2020/12/25 03:17:29;;;;;;;13.73;11.83;;;7.30;77.80;;;;;;6187299;23;20071;-82
2020/12/25 03:19:55;;;;;;;14.63;12.07;;;7.30;77.70;;;;;;6187516;23;20008;-82
2020/12/25 03:22:21;;;;;;;13.10;10.53;;;7.20;77.50;;;;;;6213922;23;20020;-82
2020/12/25 03:24:46;;;;;;;14.97;11.17;;;7.30;78.00;;;;;;6186874;23;20047;-82
2020/12/25 03:27:12;;;;;;;15.13;12.00;;;7.30;77.80;;;;;;6184922;23;20004;-82
2020/12/25 03:29:38;;;;;;;18.70;13.97;;;7.30;77.70;;;;;;6187299;23;20337;-82
2020/12/25 03:32:03;;;;;;;13.10;11.13;;;7.30;77.50;;;;;;6214610;23;20071;-82
2020/12/25 03:34:29;;;;;;;11.53;9.63;;;7.20;77.70;;;;;;6186870;23;20012;-81
2020/12/25 03:36:55;;;;;;;15.70;12.73;;;7.20;77.70;;;;;;6186962;23;20008;-81
2020/12/25 03:39:21;;;;;;;13.63;10.73;;;7.20;77.70;;;;;;6187389;23;20008;-81
2020/12/25 03:41:47;;;;;;;13.13;9.67;;;7.20;77.70;;;;;;6187553;23;20096;-81
2020/12/25 03:44:13;;;;;;;13.77;10.20;;;7.20;77.80;;;;;;6187905;23;20079;-81
2020/12/25 03:46:38;;;;;;;14.47;11.70;;;7.20;78.00;;;;;;6213502;23;20068;-81
2020/12/25 03:49:05;;;;;;;15.83;12.53;;;7.20;77.90;;;;;;6187951;23;20088;-81
2020/12/25 03:51:31;;;;;;;14.77;12.27;;;7.20;77.80;;;;;;6187636;23;20008;-82
2020/12/25 03:53:57;;;;;;;17.47;12.40;;;7.20;77.90;;;;;;6213830;23;20004;-82
2020/12/25 03:56:24;;;;;;;16.63;12.83;;;7.20;78.00;;;;;;6186906;23;20327;-82
2020/12/25 03:58:49;;;;;;;15.60;12.30;;;7.20;78.10;;;;;;6213401;23;20369;-82
2020/12/25 04:01:15;;;;;;;14.63;12.40;;;7.10;77.90;;;;;;6187202;23;20012;-82
2020/12/25 04:03:41;;;;;;;18.03;12.90;;;7.10;78.10;;;;;;6186467;23;20059;-82
2020/12/25 04:06:07;;;;;;;14.93;12.73;;;7.20;78.20;;;;;;6187495;23;20008;-82
2020/12/25 04:08:33;;;;;;;15.43;12.50;;;7.20;78.10;;;;;;6213664;23;20004;-82
2020/12/25 04:10:58;;;;;;;15.20;11.77;;;7.20;78.10;;;;;;6186505;23;20016;-82
2020/12/25 04:13:24;;;;;;;14.83;11.83;;;7.20;78.10;;;;;;6187412;23;20031;-82
2020/12/25 04:15:50;;;;;;;11.33;9.20;;;7.20;78.20;;;;;;6186911;23;20000;-82
2020/12/25 04:18:16;;;;;;;6.30;4.43;;;7.20;78.00;;;;;;6186724;23;20032;-82
2020/12/25 04:20:42;;;;;;;2.77;2.23;;;7.20;78.10;;;;;;6213270;23;20009;-82
2020/12/25 04:23:07;;;;;;;2.60;1.70;;;7.20;77.30;;;;;;6187016;23;20845;-82
2020/12/25 04:25:33;;;;;;;1.20;1.00;;;7.30;76.40;;;;;;6187556;23;20372;-82
2020/12/25 04:27:59;;;;;;;2.10;1.17;;;7.20;75.90;;;;;;6186983;23;20016;-82
2020/12/25 04:30:25;;;;;;;1.13;0.73;;;7.20;75.80;;;;;;6212255;23;20097;-82
2020/12/25 04:32:50;;;;;;;2.77;0.43;;;7.20;75.40;;;;;;6186939;23;20032;-82
2020/12/25 04:35:16;;;;;;;0.90;0.70;;;7.30;75.10;;;;;;6186815;23;20104;-82
2020/12/25 04:37:42;;;;;;;3.10;2.50;;;7.30;74.60;;;;;;6187405;23;20009;-82
2020/12/25 04:40:08;;;;;;;4.40;3.57;;;7.30;74.40;;;;;;6213033;23;20020;-82
2020/12/25 04:42:40;;;;;;;6.13;4.20;;;7.20;74.40;;;;;;6186732;23;20040;-82
2020/12/25 04:45:07;;;;;;;4.38;3.53;;;7.30;74.70;;;;;;6187318;23;20095;-82
2020/12/25 04:47:37;;;;;;;4.23;2.40;;;7.20;74.70;;;;;;6186495;23;20009;-82
2020/12/25 04:50:04;;;;;;;5.07;3.50;;;7.20;74.50;;;;;;6212307;23;20008;-82
2020/12/25 04:52:30;;;;;;;1.40;0.83;;;7.20;74.50;;;;;;6213678;23;20005;-82
2020/12/25 04:54:57;;;;;;;0.30;0.20;;;7.10;73.90;;;;;;6213125;23;20430;-82
2020/12/25 04:57:23;;;;;;;0.10;0.00;;;7.10;73.40;;;;;;6213124;23;20007;-82
2020/12/25 04:59:49;;;;;;;0.30;0.10;;;7.00;72.00;;;;;;6186829;23;20123;-82
2020/12/25 05:02:15;;;;;;;0.00;0.00;;;7.00;71.60;;;;;;6185213;23;20503;-82
2020/12/25 05:04:41;;;;;;;0.10;0.10;;;7.00;70.90;;;;;;6186567;23;20347;-82
2020/12/25 05:07:07;;;;;;;0.03;0.03;;;6.90;70.30;;;;;;6186663;23;20020;-82
2020/12/25 05:09:33;;;;;;;0.00;0.00;;;6.90;69.40;;;;;;6184908;23;20012;-82
2020/12/25 05:11:59;;;;;;;0.50;0.17;;;6.90;68.30;;;;;;6186952;23;20001;-82
2020/12/25 05:14:29;;;;;;;0.10;0.10;;;7.00;68.00;;;;;;6185997;23;20005;-82
2020/12/25 05:16:59;;;;;;;0.17;0.10;;;7.00;67.80;;;;;;6187326;23;20019;-83
2020/12/25 05:19:30;;;;;;;0.30;0.13;;;7.00;67.70;;;;;;6186822;23;20050;-83
2020/12/25 05:21:59;;;;;;;0.10;0.03;;;7.10;67.70;;;;;;6214567;23;20079;-82
2020/12/25 05:24:25;;;;;;;0.20;0.10;;;7.10;66.80;;;;;;6185667;23;20432;-82
2020/12/25 05:26:56;;;;;;;0.00;0.00;;;7.10;66.10;;;;;;6186744;23;20004;-82
2020/12/25 05:29:27;;;;;;;0.20;0.10;;;7.10;65.70;;;;;;6187918;23;20029;-82
2020/12/25 05:31:53;;;;;;;0.10;0.03;;;7.20;65.40;;;;;;6187582;23;20608;-82
2020/12/25 05:34:20;;;;;;;3.97;1.87;;;7.20;65.00;;;;;;6183501;23;20000;-82
2020/12/25 05:36:53;;;;;;;38.63;14.67;;;7.20;64.80;;;;;;6212663;23;20533;-82
2020/12/25 05:39:26;;;;;;;3.30;1.20;;;7.20;64.60;;;;;;6214658;23;20020;-82
2020/12/25 05:42:03;;;;;;;8.00;3.65;;;7.20;64.20;;;;;;6187015;23;20020;-81
2020/12/25 05:44:34;;;;;;;18.13;8.27;;;7.20;63.70;;;;;;6186568;23;20432;-81
2020/12/25 05:47:01;;;;;;;1.27;0.57;;;7.20;63.60;;;;;;6212733;23;20332;-82
2020/12/25 05:49:29;;;;;;;0.70;0.40;;;7.20;63.30;;;;;;6185415;23;20597;-82
2020/12/25 05:51:55;;;;;;;0.10;0.10;;;7.10;62.60;;;;;;6212813;23;20003;-82
2020/12/25 05:54:25;;;;;;;0.00;0.00;;;7.00;62.00;;;;;;6185675;23;20008;-82
2020/12/25 05:56:56;;;;;;;10.00;3.87;;;6.90;61.80;;;;;;6186115;23;20050;-82
2020/12/25 05:59:27;;;;;;;4.10;1.33;;;6.90;61.80;;;;;;6185048;23;20008;-82
2020/12/25 06:01:57;;;;;;;42.60;18.50;;;7.00;62.10;;;;;;6212801;23;19997;-81
2020/12/25 06:04:28;;;;;;;67.50;31.67;;;7.10;61.90;;;;;;6186149;23;20538;-82
2020/12/25 06:06:55;;;;;;;4.63;2.17;;;7.10;62.00;;;;;;6187523;23;20009;-82
2020/12/25 06:09:31;;;;;;;6.30;3.20;;;7.20;61.80;;;;;;6185905;23;20009;-82
2020/12/25 06:11:57;;;;;;;0.60;0.40;;;7.20;61.80;;;;;;6186440;23;20005;-82
2020/12/25 06:14:23;;;;;;;0.20;0.10;;;7.20;61.80;;;;;;6186917;23;20007;-82
2020/12/25 06:17:12;;;;;;;0.70;0.30;;;7.10;61.40;;;;;;6214009;23;19997;-82
2020/12/25 06:19:53;;;;;;;1.20;0.50;;;7.10;61.10;;;;;;6186536;23;20036;-82
2020/12/25 06:22:22;;;;;;;6.60;3.30;;;7.10;61.60;;;;;;6186041;23;20005;-82
2020/12/25 06:24:51;;;;;;;1.10;0.60;;;7.10;61.80;;;;;;6212023;23;20324;-81
2020/12/25 06:27:18;;;;;;;0.67;0.30;;;7.10;61.40;;;;;;6182360;23;20009;-82
2020/12/25 06:29:44;;;;;;;1.10;0.40;;;7.10;61.20;;;;;;6185821;23;20038;-82
2020/12/25 06:32:11;;;;;;;1.53;0.87;;;7.10;61.20;;;;;;6185718;23;20008;-82
2020/12/25 06:34:44;;;;;;;0.97;0.50;;;7.10;61.10;;;;;;6186159;23;20424;-82
2020/12/25 06:37:13;;;;;;;2.22;1.52;;;7.10;60.80;;;;;;6184411;23;20027;-82
2020/12/25 06:39:53;;;;;;;1.07;0.70;;;7.00;61.00;;;;;;6184390;23;20004;-82
2020/12/25 06:42:32;;;;;;;1.40;0.67;;;7.00;60.80;;;;;;6212688;23;20001;-81
2020/12/25 06:44:59;;;;;;;0.53;0.30;;;7.10;61.10;;;;;;6185239;23;20005;-82
2020/12/25 06:47:37;;;;;;;1.47;0.87;;;7.10;61.60;;;;;;6214014;23;20063;-82
2020/12/25 06:50:14;;;;;;;1.10;0.60;;;6.90;61.40;;;;;;6162684;23;20016;-81
2020/12/25 06:52:54;;;;;;;1.80;0.60;;;7.00;61.80;;;;;;6188399;23;20029;-81
2020/12/25 06:55:24;;;;;;;4.10;0.60;;;6.90;62.00;;;;;;6187432;23;20324;-81
2020/12/25 06:57:53;;;;;;;1.23;0.80;;;6.90;62.30;;;;;;6215267;23;20004;-82
2020/12/25 07:00:20;;;;;;;0.80;0.50;;;6.90;62.70;;;;;;6187447;23;20011;-82
2020/12/25 07:02:47;;;;;;;1.23;0.80;;;6.90;63.10;;;;;;6186805;23;20063;-82
2020/12/25 07:05:12;;;;;;;1.40;0.70;;;6.90;63.80;;;;;;6187632;23;20008;-82
2020/12/25 07:07:38;;;;;;;1.00;0.70;;;6.90;63.50;;;;;;6188092;23;20008;-82
2020/12/25 07:10:11;;;;;;;1.60;1.00;;;7.00;63.80;;;;;;6187713;23;20008;-82
2020/12/25 07:12:38;;;;;;;5.07;1.00;;;6.90;63.80;;;;;;6187899;23;20008;-82
2020/12/25 07:15:06;;;;;;;3.00;2.20;;;6.80;64.10;;;;;;6187201;23;20079;-83
2020/12/25 07:17:31;;;;;;;1.97;1.60;;;6.80;64.40;;;;;;6214449;23;20004;-83
2020/12/25 07:19:57;;;;;;;2.67;1.60;;;6.80;65.00;;;;;;6187833;23;20042;-82
2020/12/25 07:22:23;;;;;;;5.50;3.20;;;6.80;65.30;;;;;;6187886;23;20015;-82
2020/12/25 07:24:49;;;;;;;5.33;3.23;;;6.80;65.40;;;;;;6214013;23;20019;-82
2020/12/25 07:27:15;;;;;;;3.90;2.57;;;6.80;65.80;;;;;;6188079;23;20008;-82
2020/12/25 07:29:42;;;;;;;3.87;2.63;;;6.90;66.00;;;;;;6186862;23;20012;-82
2020/12/25 07:32:10;;;;;;;5.50;3.33;;;6.80;66.20;;;;;;6186965;23;20004;-82
2020/12/25 07:34:36;;;;;;;3.87;2.40;;;6.80;66.40;;;;;;6186924;23;20102;-82
2020/12/25 07:37:02;;;;;;;3.67;2.37;;;6.80;66.50;;;;;;6187176;23;20429;-82
2020/12/25 07:39:29;;;;;;;5.30;2.90;;;6.80;66.60;;;;;;6211891;23;20010;-82
2020/12/25 07:41:55;;;;;;;8.07;4.77;;;6.80;66.50;;;;;;6187012;23;20020;-82
2020/12/25 07:44:21;;;;;;;6.80;4.47;;;6.80;66.50;;;;;;6185848;23;20400;-83
2020/12/25 07:46:47;;;;;;;6.70;4.63;;;6.70;66.80;;;;;;6185873;23;20087;-82
2020/12/25 07:49:13;;;;;;;6.47;4.33;;;6.70;67.30;;;;;;6187745;23;20005;-82
2020/12/25 07:51:39;;;;;;;6.40;3.67;;;6.70;67.60;;;;;;6187399;23;20058;-82
2020/12/25 07:54:06;;;;;;;8.63;4.60;;;6.80;67.90;;;;;;6187436;23;20013;-82
2020/12/25 07:56:34;;;;;;;8.23;5.87;;;6.80;68.00;;;;;;6213177;23;19998;-82
2020/12/25 07:59:01;;;;;;;8.20;6.43;;;6.80;68.20;;;;;;6185107;23;20070;-82
2020/12/25 08:01:28;;;;;;;5.97;3.70;;;6.80;68.50;;;;;;6186114;23;20008;-82
2020/12/25 08:03:57;;;;;;;4.13;2.40;;;6.80;68.70;;;;;;6186075;23;20020;-82
2020/12/25 08:06:25;;;;;;;5.33;3.20;;;6.80;68.80;;;;;;6214194;23;20100;-82
2020/12/25 08:08:57;;;;;;;4.70;3.40;;;6.80;68.80;;;;;;6187483;23;20032;-82
2020/12/25 08:11:25;;;;;;;7.70;5.43;;;6.80;69.00;;;;;;6186589;23;20072;-82
2020/12/25 08:13:53;;;;;;;8.73;5.83;;;6.80;69.00;;;;;;6186585;23;20001;-82
2020/12/25 08:16:19;;;;;;;11.30;6.13;;;6.90;69.00;;;;;;6186097;23;20011;-82
2020/12/25 08:18:49;;;;;;;8.13;5.47;;;6.90;69.10;;;;;;6188870;23;20012;-81
2020/12/25 08:21:16;;;;;;;7.77;5.13;;;6.90;69.20;;;;;;6213979;23;20012;-82
2020/12/25 08:23:41;;;;;;;7.57;4.90;;;6.90;69.10;;;;;;6186763;23;20008;-82
2020/12/25 08:26:08;;;;;;;7.47;5.53;;;6.90;69.10;;;;;;6185908;23;20031;-82
2020/12/25 08:28:34;;;;;;;6.90;5.57;;;6.90;69.40;;;;;;6213115;23;20009;-82
2020/12/25 08:31:17;;;;;;;8.77;5.57;;;6.80;69.40;;;;;;6212794;23;20013;-82
2020/12/25 08:33:56;;;;;;;10.45;7.70;;;6.90;69.70;;;;;;6186437;23;20066;-83
2020/12/25 08:36:22;;;;;;;12.43;7.90;;;6.80;69.60;;;;;;6188026;23;20043;-83
2020/12/25 08:38:48;;;;;;;8.43;5.33;;;6.90;69.80;;;;;;6187203;23;20454;-82
2020/12/25 08:41:15;;;;;;;3.97;2.47;;;6.80;69.80;;;;;;6214796;23;20004;-82
2020/12/25 08:43:41;;;;;;;5.40;2.60;;;6.80;69.90;;;;;;6186603;23;20015;-83
2020/12/25 08:46:07;;;;;;;4.83;2.07;;;6.80;69.60;;;;;;6213065;23;20047;-82
2020/12/25 08:48:48;;;;;;;3.00;2.03;;;6.80;69.80;;;;;;6185246;23;20008;-82
2020/12/25 08:51:15;;;;;;;2.43;1.73;;;6.90;69.80;;;;;;6187184;23;20031;-82
2020/12/25 08:53:52;;;;;;;3.57;2.27;;;6.80;69.60;;;;;;6212642;23;20024;-82
2020/12/25 08:56:17;;;;;;;4.00;1.87;;;6.80;69.40;;;;;;6213742;23;20001;-83
2020/12/25 08:59:00;;;;;;;9.43;3.50;;;6.90;69.50;;;;;;6187318;23;20009;-83
2020/12/25 09:01:28;;;;;;;5.45;2.28;;;6.90;69.00;;;;;;6186524;23;20012;-82
2020/12/25 09:03:56;;;;;;;6.20;3.07;;;6.90;68.80;;;;;;6214393;23;20087;-82
2020/12/25 09:06:22;;;;;;;6.13;3.00;;;6.90;68.80;;;;;;6188501;23;20524;-82
2020/12/25 09:08:48;;;;;;;6.10;3.37;;;6.90;68.80;;;;;;6188414;23;20043;-82
2020/12/25 09:11:16;;;;;;;4.87;2.90;;;6.90;68.90;;;;;;6213550;23;20079;-82
2020/12/25 09:13:43;;;;;;;4.43;2.73;;;6.90;68.90;;;;;;6214212;23;20004;-82
2020/12/25 09:16:09;;;;;;;6.53;2.17;;;7.00;69.00;;;;;;6189027;23;20089;-82
2020/12/25 09:18:36;;;;;;;4.23;2.20;;;6.90;69.00;;;;;;6187695;23;20028;-82
2020/12/25 09:21:03;;;;;;;5.33;2.20;;;6.90;69.00;;;;;;6188586;23;20012;-82
2020/12/25 09:23:29;;;;;;;5.80;2.47;;;6.90;69.20;;;;;;6188226;23;20009;-82
2020/12/25 09:25:55;;;;;;;5.97;3.60;;;7.00;69.20;;;;;;6215930;23;19996;-82
2020/12/25 09:28:24;;;;;;;3.90;2.77;;;7.00;69.40;;;;;;6215404;23;20042;-82
2020/12/25 09:30:53;;;;;;;3.90;2.67;;;7.00;69.40;;;;;;6215787;23;20013;-83
2020/12/25 09:33:19;;;;;;;5.13;2.97;;;7.00;69.40;;;;;;6189700;23;20055;-82
2020/12/25 09:35:46;;;;;;;5.70;3.20;;;7.00;69.40;;;;;;6189874;23;20005;-82
2020/12/25 09:38:11;;;;;;;4.13;3.30;;;7.00;69.50;;;;;;6187218;23;20043;-82
2020/12/25 09:40:37;;;;;;;6.97;3.37;;;7.00;69.50;;;;;;6215516;23;20004;-82
2020/12/25 09:43:03;;;;;;;5.27;3.23;;;7.00;69.50;;;;;;6188432;23;20032;-82
2020/12/25 09:45:28;;;;;;;5.33;2.53;;;7.00;69.40;;;;;;6215222;23;20024;-83
2020/12/25 09:47:54;;;;;;;5.13;3.17;;;7.00;69.60;;;;;;6189674;23;20032;-83
2020/12/25 09:50:20;;;;;;;5.40;3.57;;;7.00;69.60;;;;;;6187779;23;20042;-83
2020/12/25 09:52:45;;;;;;;3.67;2.40;;;7.00;69.60;;;;;;6188364;23;20108;-83
2020/12/25 09:55:11;;;;;;;4.17;1.67;;;7.10;69.50;;;;;;6186853;23;20005;-83
2020/12/25 09:57:38;;;;;;;3.83;2.10;;;7.00;69.40;;;;;;6186096;23;20008;-83
2020/12/25 10:00:12;;;;;;;4.10;1.83;;;7.10;69.40;;;;;;6188955;23;20087;-83
2020/12/25 10:02:38;;;;;;;2.53;1.63;;;7.10;69.30;;;;;;6188181;23;20499;-83
2020/12/25 10:05:05;;;;;;;2.63;1.80;;;7.10;69.20;;;;;;6214855;23;20005;-83
2020/12/25 10:07:31;;;;;;;2.27;1.60;;;7.10;69.20;;;;;;6215357;23;20008;-83
2020/12/25 10:09:57;;;;;;;2.07;1.40;;;7.10;69.20;;;;;;6187775;23;20009;-83
2020/12/25 10:12:23;;;;;;;1.93;1.33;;;7.10;69.40;;;;;;6213367;23;20000;-83
2020/12/25 10:14:49;;;;;;;3.23;1.50;;;7.10;69.40;;;;;;6214202;23;19997;-83
2020/12/25 10:17:15;;;;;;;2.57;1.73;;;7.10;69.40;;;;;;6187419;23;20005;-82
2020/12/25 10:19:40;;;;;;;3.83;2.57;;;7.10;69.50;;;;;;6187093;23;20328;-82
2020/12/25 10:22:06;;;;;;;6.53;4.07;;;7.10;69.50;;;;;;6189542;23;20091;-82
2020/12/25 10:24:32;;;;;;;7.73;4.30;;;7.20;69.50;;;;;;6215991;23;20005;-83
2020/12/25 10:26:57;;;;;;;7.17;4.70;;;7.20;69.60;;;;;;6189145;23;20013;-82
2020/12/25 10:29:23;;;;;;;5.30;3.33;;;7.20;69.50;;;;;;6215062;23;20015;-82
2020/12/25 10:31:50;;;;;;;10.03;5.77;;;7.20;69.40;;;;;;6216040;23;20047;-82
2020/12/25 10:34:16;;;;;;;6.43;4.07;;;7.20;69.40;;;;;;6190724;23;20009;-82
2020/12/25 10:36:43;;;;;;;9.53;5.70;;;7.10;69.50;;;;;;6189055;23;20008;-82
2020/12/25 10:39:12;;;;;;;4.43;2.47;;;7.20;70.10;;;;;;6215987;23;20739;-82
2020/12/25 10:41:38;;;;;;;3.80;3.10;;;7.10;69.90;;;;;;6215133;23;20007;-82
2020/12/25 10:44:04;;;;;;;4.70;4.20;;;7.10;69.20;;;;;;6189958;23;20525;-83
2020/12/25 10:46:29;;;;;;;5.00;2.90;;;7.00;69.30;;;;;;6215970;23;20411;-83
2020/12/25 10:48:55;;;;;;;3.40;2.20;;;7.00;69.50;;;;;;6188941;23;20381;-83
2020/12/25 10:51:21;;;;;;;2.80;1.73;;;7.00;69.60;;;;;;6189067;23;20004;-83
2020/12/25 10:53:47;;;;;;;7.60;4.27;;;7.00;69.40;;;;;;6189080;23;20051;-83
2020/12/25 10:56:24;;;;;;;5.93;3.47;;;7.00;69.40;;;;;;6215350;23;20428;-83
2020/12/25 10:58:50;;;;;;;8.03;5.20;;;7.10;69.20;;;;;;6189167;23;20428;-83
2020/12/25 11:01:26;;;;;;;10.60;4.53;;;7.10;69.20;;;;;;6189349;23;20662;-83
2020/12/25 11:03:53;;;;;;;5.47;2.57;;;7.10;69.30;;;;;;6187163;23;20360;-83
2020/12/25 11:06:19;;;;;;;9.40;4.83;;;7.10;69.20;;;;;;6189059;23;20005;-83
2020/12/25 11:08:49;;;;;;;5.17;3.10;;;7.10;69.20;;;;;;6189071;23;20028;-83
2020/12/25 11:11:28;;;;;;;8.13;4.30;;;7.10;69.50;;;;;;6216455;23;20039;-83
2020/12/25 11:13:54;;;;;;;12.20;6.33;;;7.10;69.40;;;;;;6188181;23;20004;-83
2020/12/25 11:16:31;;;;;;;30.97;15.10;;;7.10;69.40;;;;;;6187903;23;20411;-82
2020/12/25 11:18:58;;;;;;;10.40;5.37;;;7.10;69.50;;;;;;6188828;23;20004;-82
2020/12/25 11:21:29;;;;;;;34.93;17.80;;;7.10;69.50;;;;;;6189316;23;20008;-82
2020/12/25 11:23:56;;;;;;;11.70;6.50;;;7.00;69.50;;;;;;6188878;23;20048;-83
2020/12/25 11:26:29;;;;;;;8.50;4.97;;;7.00;69.70;;;;;;6215728;23;19997;-83
2020/12/25 11:28:57;;;;;;;3.20;2.03;;;7.00;69.90;;;;;;6188586;23;20055;-83
2020/12/25 11:31:23;;;;;;;5.87;2.97;;;7.00;69.80;;;;;;6191034;23;20016;-83
2020/12/25 11:33:50;;;;;;;3.80;2.27;;;7.00;69.80;;;;;;6189691;23;20011;-83
2020/12/25 11:36:21;;;;;;;38.77;20.03;;;7.00;69.80;;;;;;6216436;23;20005;-83
2020/12/25 11:38:47;;;;;;;2.93;2.17;;;7.00;69.90;;;;;;6188953;23;20023;-83
2020/12/25 11:41:14;;;;;;;2.57;1.90;;;7.00;69.90;;;;;;6188067;23;20009;-83
2020/12/25 11:43:40;;;;;;;11.70;5.47;;;7.00;70.00;;;;;;6187228;23;20365;-83
2020/12/25 11:46:07;;;;;;;4.27;2.20;;;7.00;70.10;;;;;;6216360;23;20379;-83
2020/12/25 11:48:33;;;;;;;6.70;2.80;;;7.00;69.80;;;;;;6189350;23;20012;-83
2020/12/25 11:50:59;;;;;;;6.10;3.07;;;7.00;70.10;;;;;;6189042;23;20343;-83
2020/12/25 11:53:26;;;;;;;11.50;5.17;;;7.00;70.10;;;;;;6189831;23;20000;-82
2020/12/25 11:55:52;;;;;;;7.10;3.73;;;7.00;70.00;;;;;;6190781;23;20009;-83
2020/12/25 11:58:18;;;;;;;7.13;3.80;;;6.90;70.20;;;;;;6217443;23;20000;-83
2020/12/25 12:00:44;;;;;;;6.63;3.63;;;7.00;70.20;;;;;;6189071;23;20015;-83
2020/12/25 12:03:10;;;;;;;11.50;6.40;;;6.90;70.10;;;;;;6189588;23;20088;-83
2020/12/25 12:05:39;;;;;;;10.23;4.27;;;6.90;70.30;;;;;;6217074;23;20016;-83
2020/12/25 12:08:04;;;;;;;3.47;2.37;;;6.90;70.30;;;;;;6190788;23;20028;-85
2020/12/25 12:10:30;;;;;;;2.57;2.07;;;6.90;70.10;;;;;;6189193;23;20009;-83
2020/12/25 12:12:56;;;;;;;6.13;2.83;;;6.90;70.00;;;;;;6216640;23;20000;-83
2020/12/25 12:15:21;;;;;;;3.53;2.23;;;6.80;69.90;;;;;;6217326;23;20328;-83
2020/12/25 12:17:47;;;;;;;9.30;4.83;;;6.80;70.10;;;;;;6190141;23;20004;-83
2020/12/25 12:20:13;;;;;;;3.70;2.60;;;6.90;70.20;;;;;;6190078;23;20066;-83
2020/12/25 12:22:38;;;;;;;40.13;21.47;;;6.90;70.10;;;;;;6189216;23;20023;-83
2020/12/25 12:25:08;;;;;;;6.13;3.73;;;6.90;70.40;;;;;;6191101;23;20004;-83
2020/12/25 12:27:34;;;;;;;5.33;2.63;;;7.00;69.90;;;;;;6216123;23;20091;-83
2020/12/25 12:30:03;;;;;;;14.13;6.73;;;6.90;69.70;;;;;;6191411;23;20039;-83
2020/12/25 12:32:28;;;;;;;44.60;22.60;;;6.90;69.80;;;;;;6190950;23;20004;-83
2020/12/25 12:34:54;;;;;;;10.43;5.63;;;6.90;70.00;;;;;;6200313;23;20008;-83
2020/12/25 12:37:20;;;;;;;12.83;6.30;;;7.00;69.70;;;;;;6199298;23;20008;-82
2020/12/25 12:39:45;;;;;;;5.63;3.90;;;6.90;69.70;;;;;;6198612;23;20039;-83
2020/12/25 12:42:11;;;;;;;12.50;6.17;;;6.90;69.90;;;;;;6191919;23;20011;-83
2020/12/25 12:44:37;;;;;;;16.37;9.03;;;6.90;69.80;;;;;;6186699;23;20598;-83
2020/12/25 12:47:02;;;;;;;11.27;6.17;;;6.90;69.80;;;;;;6189924;23;20005;-83
2020/12/25 12:49:28;;;;;;;3.97;2.40;;;6.90;69.80;;;;;;6190534;23;20009;-83